罗盘
风向 的 风向 340° 多倫多皮爾遜國際機場 6L/24R
风: 11 kt, 4 beaufort

4 kt

10 kt
改变
0 6.000 12.000 18.000 24.000 30.000
FEW 24.000 ft
METAR CYYZ 030300Z 34011KT 15SM FEW240 21/08 A3000 RMK CI1 SLP160 DENSITY ALT 1400FT

METAR 多倫多皮爾遜國際機場

多倫多皮爾遜國際機場是Toronto,加拿大中的大型机场。 该机场有6条跑道: 6L/24R, 6R/24L, 5/23, 15L/33R, 15R/33L 和 15/33.

这份报告是针对2022年7月2日 11:00 下午, 当地时间在多倫多皮爾遜國際機場进行的。

机场观察

风向为340°,速度为11 kt。

可见度为15 mi。

有几云在24.000 ft的高度。 没有观察到天花板。

温度和风寒是70 °F。 露点为46 °F,相对湿度为43%。 海平面上的气压为30,00 inHg (QNH)。

白天

今天,太阳从5:42 上午升起,在9:03 下午降落。 这适用于多倫多皮爾遜國際機場,世界夏令时可能有所不同。 当地时间与世界标准时间之间的时差为-4 小时。 夏令时目前正在进行中。

公司介绍

我们没有关于这个机场的公司信息。

体会

到Vliegles.nl去找飞行课程,跳伞和其他飞行体验。 浏览页面,了解多倫多皮爾遜國際機場附近所有可用的活动。 你也可以使用搜索功能来寻找你所在地附近的特定飞行课程、跳伞或其他飞行体验。

您会帮助我们保持Metar-Taf.com正常运行吗?
您的贡献有助于网站的进一步开发并支付费用。

没有更多广告

您是捐款5美元还是更多?然后,我们将永远不会再向您展示广告,这是我们永恒的感谢!
捐赠前先登录

跑道

Id 标题 侧风 逆风 侧风 %
6L/24R 047°-227° 10 kt 4 kt 92 %
6R/24L 047°-227° 10 kt 4 kt 92 %
5/23 047°-227° 10 kt 4 kt 92 %
15L/33R 137°-317° 4 kt 10 kt 39 %
15R/33L 137°-317° 4 kt 10 kt 39 %
15/33 137°-317° 4 kt 10 kt 39 %

逆风成分最大的方向会被突出显示,并用于横风计算。 这并不一定意味着这个方向在使用。

乌云

24.000 ft FEW 几云

温度 & 天气

温度 70 °F
露点 46 °F
相对湿度 43%
Kp-index 0  

评论

SLP160海平面压力为30,00 inHg (30,00 inHg)
CI1 DENSITY ALT 1400FT

公司介绍

新增公司

下载我们的应用程序

在您的手机和平板电脑上轻松访问所有航空天气。
有许多网站上没有的功能,如离线支持和个人机场列表。

Studio Eveline

Benalmádena
España

我们和第三方通过cookies跟踪您在我们网站上的上网行为。如果您继续,我们认为您同意我们的cookie政策。 了解更多